SWA3481 KMSY-KBWI
Flight info
| Callsign | SWA3481 |
|---|---|
| Flight time | 1h 59m |
| Altitude | 39000 |
| Route | CATLN Q56 KELLN Q58 PEETT THHMP RAVNN8 |
| Aircraft | B38M/M-SDE1FGHILORVWXY/HB1 |
Departure
| Time | 2026-05-06 12:17 |
|---|---|
| Airport | Louis Armstrong New Orleans International Airport (KMSY) |
Arrival
| Time | 2026-05-06 14:17 |
|---|---|
| Airport | Baltimore/Washington International Thurgood Marshall Airport (KBWI) |
| Time | Latitude | Longitude | Altitude | Speed | Heading |
|---|---|---|---|---|---|
| 2026-05-06 11:48 | 29.99626 | -90.26148 | 12 ft | 0 kts | 108° |
| 2026-05-06 12:05 | 29.99627 | -90.26152 | 12 ft | 2 kts | 108° |
| 2026-05-06 12:05 | 29.99632 | -90.26170 | 12 ft | 3 kts | 108° |
| 2026-05-06 12:05 | 29.99635 | -90.26180 | 12 ft | 0 kts | 108° |
| 2026-05-06 12:09 | 29.99628 | -90.26166 | 12 ft | 7 kts | 130° |
| 2026-05-06 12:10 | 29.99560 | -90.26162 | 12 ft | 12 kts | 194° |
| 2026-05-06 12:10 | 29.99474 | -90.26189 | 13 ft | 12 kts | 197° |
| 2026-05-06 12:10 | 29.99438 | -90.26265 | 14 ft | 12 kts | 273° |
| 2026-05-06 12:10 | 29.99458 | -90.26366 | 16 ft | 14 kts | 284° |
| 2026-05-06 12:11 | 29.99482 | -90.26477 | 17 ft | 15 kts | 286° |
| 2026-05-06 12:11 | 29.99509 | -90.26592 | 18 ft | 16 kts | 284° |
| 2026-05-06 12:11 | 29.99540 | -90.26722 | 18 ft | 18 kts | 286° |
| 2026-05-06 12:11 | 29.99576 | -90.26866 | 19 ft | 19 kts | 286° |
| 2026-05-06 12:12 | 29.99614 | -90.27023 | 17 ft | 22 kts | 285° |
| 2026-05-06 12:12 | 29.99653 | -90.27184 | 13 ft | 20 kts | 288° |
| 2026-05-06 12:12 | 29.99690 | -90.27337 | 13 ft | 17 kts | 286° |
| 2026-05-06 12:12 | 29.99725 | -90.27481 | 12 ft | 20 kts | 285° |
| 2026-05-06 12:13 | 29.99748 | -90.27586 | 12 ft | 11 kts | 276° |
| 2026-05-06 12:13 | 29.99713 | -90.27666 | 13 ft | 13 kts | 210° |
| 2026-05-06 12:13 | 29.99670 | -90.27685 | 10 ft | 0 kts | 197° |
| 2026-05-06 12:15 | 29.99667 | -90.27686 | 10 ft | 2 kts | 197° |
| 2026-05-06 12:15 | 29.99643 | -90.27694 | 11 ft | 5 kts | 196° |
| 2026-05-06 12:15 | 29.99598 | -90.27710 | 9 ft | 6 kts | 196° |
| 2026-05-06 12:16 | 29.99557 | -90.27703 | 9 ft | 6 kts | 135° |
| 2026-05-06 12:16 | 29.99539 | -90.27648 | 9 ft | 12 kts | 106° |
| 2026-05-06 12:16 | 29.99445 | -90.27261 | 15 ft | 89 kts | 105° |
| 2026-05-06 12:16 | 29.99214 | -90.26310 | 14 ft | 155 kts | 105° |
| 2026-05-06 12:17 | 29.98900 | -90.24944 | 306 ft | 186 kts | 106° |
| 2026-05-06 12:17 | 29.98575 | -90.23557 | 1320 ft | 179 kts | 107° |
| 2026-05-06 12:17 | 29.98239 | -90.22164 | 2256 ft | 180 kts | 108° |
| 2026-05-06 12:17 | 29.97907 | -90.20775 | 3223 ft | 181 kts | 110° |
| 2026-05-06 12:18 | 29.97666 | -90.19310 | 4024 ft | 191 kts | 102° |
| 2026-05-06 12:18 | 29.97654 | -90.17713 | 4784 ft | 203 kts | 89° |
| 2026-05-06 12:18 | 29.97983 | -90.16115 | 5649 ft | 212 kts | 72° |
| 2026-05-06 12:18 | 29.98855 | -90.14620 | 6121 ft | 237 kts | 46° |
| 2026-05-06 12:19 | 30.00049 | -90.13221 | 6771 ft | 256 kts | 48° |
| 2026-05-06 12:19 | 30.01285 | -90.11655 | 7504 ft | 268 kts | 50° |
| 2026-05-06 12:19 | 30.02461 | -90.09967 | 8421 ft | 273 kts | 54° |
| 2026-05-06 12:19 | 30.03578 | -90.08161 | 9315 ft | 279 kts | 56° |
| 2026-05-06 12:20 | 30.04679 | -90.06270 | 10094 ft | 289 kts | 58° |
| 2026-05-06 12:20 | 30.05767 | -90.04233 | 10715 ft | 307 kts | 59° |
| 2026-05-06 12:20 | 30.06900 | -90.02062 | 11258 ft | 325 kts | 59° |
| 2026-05-06 12:20 | 30.08089 | -89.99786 | 11907 ft | 338 kts | 58° |
| 2026-05-06 12:21 | 30.09322 | -89.97417 | 12562 ft | 349 kts | 58° |
| 2026-05-06 12:21 | 30.10577 | -89.95012 | 13279 ft | 357 kts | 58° |
| 2026-05-06 12:21 | 30.11866 | -89.92540 | 14071 ft | 362 kts | 57° |
| 2026-05-06 12:21 | 30.13179 | -89.90024 | 14846 ft | 368 kts | 57° |
| 2026-05-06 12:22 | 30.14509 | -89.87472 | 15634 ft | 372 kts | 57° |
| 2026-05-06 12:22 | 30.15855 | -89.84890 | 16343 ft | 377 kts | 57° |
| 2026-05-06 12:22 | 30.17215 | -89.82276 | 17048 ft | 381 kts | 56° |
| 2026-05-06 12:22 | 30.18592 | -89.79633 | 17720 ft | 386 kts | 56° |
| 2026-05-06 12:23 | 30.19983 | -89.76959 | 18351 ft | 391 kts | 56° |
| 2026-05-06 12:23 | 30.21388 | -89.74253 | 18987 ft | 395 kts | 56° |
| 2026-05-06 12:23 | 30.22793 | -89.71548 | 19611 ft | 399 kts | 56° |
| 2026-05-06 12:23 | 30.24229 | -89.68781 | 20208 ft | 403 kts | 56° |
| 2026-05-06 12:24 | 30.25679 | -89.65987 | 20782 ft | 407 kts | 55° |
| 2026-05-06 12:24 | 30.27147 | -89.63153 | 21349 ft | 411 kts | 55° |
| 2026-05-06 12:24 | 30.28624 | -89.60303 | 21885 ft | 415 kts | 55° |
| 2026-05-06 12:24 | 30.29633 | -89.58353 | 22230 ft | 418 kts | 55° |
| 2026-05-06 12:25 | 30.31112 | -89.55493 | 22715 ft | 423 kts | 55° |
| 2026-05-06 12:25 | 30.32631 | -89.52556 | 23267 ft | 425 kts | 55° |
| 2026-05-06 12:25 | 30.34156 | -89.49603 | 23762 ft | 429 kts | 54° |
| 2026-05-06 12:25 | 30.35693 | -89.46625 | 24247 ft | 433 kts | 54° |
| 2026-05-06 12:26 | 30.37242 | -89.43622 | 24699 ft | 437 kts | 54° |
| 2026-05-06 12:26 | 30.38811 | -89.40577 | 25134 ft | 441 kts | 54° |
| 2026-05-06 12:26 | 30.40394 | -89.37504 | 25555 ft | 445 kts | 54° |
| 2026-05-06 12:26 | 30.41988 | -89.34407 | 25981 ft | 449 kts | 54° |
| 2026-05-06 12:27 | 30.43577 | -89.31316 | 26377 ft | 453 kts | 54° |
| 2026-05-06 12:27 | 30.45193 | -89.28172 | 26787 ft | 457 kts | 54° |
| 2026-05-06 12:27 | 30.46825 | -89.24993 | 27155 ft | 461 kts | 53° |
| 2026-05-06 12:27 | 30.48468 | -89.21789 | 27521 ft | 464 kts | 54° |
| 2026-05-06 12:28 | 30.50125 | -89.18557 | 27902 ft | 468 kts | 53° |
| 2026-05-06 12:28 | 30.51792 | -89.15301 | 28259 ft | 471 kts | 53° |
| 2026-05-06 12:28 | 30.53470 | -89.12022 | 28600 ft | 474 kts | 53° |
| 2026-05-06 12:28 | 30.55159 | -89.08719 | 28941 ft | 478 kts | 53° |
| 2026-05-06 12:29 | 30.56857 | -89.05396 | 29294 ft | 480 kts | 53° |
| 2026-05-06 12:29 | 30.58567 | -89.02048 | 29587 ft | 484 kts | 53° |
| 2026-05-06 12:29 | 30.60290 | -88.98666 | 29919 ft | 487 kts | 53° |
| 2026-05-06 12:29 | 30.62022 | -88.95269 | 30247 ft | 490 kts | 53° |
| 2026-05-06 12:30 | 30.63760 | -88.91853 | 30573 ft | 493 kts | 53° |
| 2026-05-06 12:30 | 30.65507 | -88.88419 | 30923 ft | 495 kts | 53° |
| 2026-05-06 12:30 | 30.67258 | -88.84974 | 31236 ft | 497 kts | 53° |
| 2026-05-06 12:30 | 30.69020 | -88.81503 | 31548 ft | 500 kts | 53° |
| 2026-05-06 12:31 | 30.70788 | -88.78020 | 31863 ft | 502 kts | 53° |
| 2026-05-06 12:31 | 30.72568 | -88.74505 | 32157 ft | 504 kts | 53° |
| 2026-05-06 12:31 | 30.74325 | -88.71038 | 32450 ft | 506 kts | 53° |
| 2026-05-06 12:31 | 30.76115 | -88.67500 | 32732 ft | 508 kts | 53° |
| 2026-05-06 12:32 | 30.77912 | -88.63944 | 33018 ft | 510 kts | 53° |
| 2026-05-06 12:32 | 30.79716 | -88.60373 | 33300 ft | 513 kts | 53° |
| 2026-05-06 12:32 | 30.81523 | -88.56791 | 33556 ft | 515 kts | 53° |
| 2026-05-06 12:32 | 30.83338 | -88.53192 | 33851 ft | 516 kts | 53° |
| 2026-05-06 12:33 | 30.85155 | -88.49585 | 34121 ft | 518 kts | 53° |
| 2026-05-06 12:33 | 30.86982 | -88.45954 | 34357 ft | 521 kts | 53° |
| 2026-05-06 12:33 | 30.88816 | -88.42305 | 34625 ft | 523 kts | 53° |
| 2026-05-06 12:33 | 30.90652 | -88.38649 | 34894 ft | 524 kts | 53° |
| 2026-05-06 12:34 | 30.92493 | -88.34981 | 35191 ft | 525 kts | 53° |
| 2026-05-06 12:34 | 30.94334 | -88.31309 | 35534 ft | 524 kts | 53° |
| 2026-05-06 12:34 | 30.96167 | -88.27648 | 35853 ft | 523 kts | 53° |
| 2026-05-06 12:34 | 30.97997 | -88.23991 | 36155 ft | 523 kts | 54° |
| 2026-05-06 12:35 | 30.99835 | -88.20315 | 36439 ft | 523 kts | 54° |
| 2026-05-06 12:35 | 31.01664 | -88.16654 | 36702 ft | 523 kts | 54° |
| 2026-05-06 12:35 | 31.03467 | -88.13040 | 37019 ft | 521 kts | 53° |
| 2026-05-06 12:35 | 31.05303 | -88.09357 | 37405 ft | 517 kts | 53° |
| 2026-05-06 12:36 | 31.07108 | -88.05732 | 37747 ft | 515 kts | 54° |
| 2026-05-06 12:36 | 31.08879 | -88.02173 | 38025 ft | 513 kts | 54° |
| 2026-05-06 12:36 | 31.10668 | -87.98574 | 38251 ft | 513 kts | 53° |
| 2026-05-06 12:36 | 31.12454 | -87.94976 | 38510 ft | 511 kts | 53° |
| 2026-05-06 12:37 | 31.14235 | -87.91387 | 38726 ft | 510 kts | 53° |
| 2026-05-06 12:37 | 31.16016 | -87.87795 | 38878 ft | 511 kts | 54° |
| 2026-05-06 12:37 | 31.17793 | -87.84205 | 39026 ft | 511 kts | 53° |
| 2026-05-06 12:37 | 31.19573 | -87.80608 | 39029 ft | 512 kts | 54° |
| 2026-05-06 12:38 | 31.23126 | -87.73417 | 39021 ft | 510 kts | 53° |
| 2026-05-06 12:38 | 31.26669 | -87.66231 | 39017 ft | 511 kts | 54° |
| 2026-05-06 12:39 | 31.30224 | -87.59028 | 39027 ft | 510 kts | 51° |
| 2026-05-06 12:39 | 31.34356 | -87.52486 | 39031 ft | 503 kts | 45° |
| 2026-05-06 12:40 | 31.38609 | -87.45992 | 39032 ft | 503 kts | 45° |
| 2026-05-06 12:40 | 31.42876 | -87.39483 | 39026 ft | 503 kts | 45° |
| 2026-05-06 12:41 | 31.47130 | -87.32982 | 39033 ft | 502 kts | 45° |
| 2026-05-06 12:41 | 31.51380 | -87.26475 | 39037 ft | 502 kts | 45° |
| 2026-05-06 12:42 | 31.55628 | -87.19963 | 39036 ft | 502 kts | 45° |
| 2026-05-06 12:42 | 31.59865 | -87.13455 | 39037 ft | 503 kts | 45° |
| 2026-05-06 12:43 | 31.64105 | -87.06931 | 39039 ft | 503 kts | 45° |
| 2026-05-06 12:43 | 31.68349 | -87.00392 | 39033 ft | 503 kts | 45° |
| 2026-05-06 12:44 | 31.72553 | -86.93903 | 39035 ft | 502 kts | 45° |
| 2026-05-06 12:44 | 31.76775 | -86.87373 | 39036 ft | 502 kts | 45° |
| 2026-05-06 12:45 | 31.81006 | -86.80820 | 39036 ft | 502 kts | 45° |
| 2026-05-06 12:46 | 31.87340 | -86.70988 | 39035 ft | 503 kts | 45° |
| 2026-05-06 12:46 | 31.91558 | -86.64427 | 39040 ft | 503 kts | 45° |
| 2026-05-06 12:47 | 31.95767 | -86.57867 | 39035 ft | 502 kts | 45° |
| 2026-05-06 12:47 | 31.99946 | -86.51343 | 39037 ft | 502 kts | 45° |
| 2026-05-06 12:48 | 32.04182 | -86.44720 | 39046 ft | 504 kts | 45° |
| 2026-05-06 12:48 | 32.08368 | -86.38164 | 39052 ft | 503 kts | 45° |
| 2026-05-06 12:49 | 32.12576 | -86.31563 | 39051 ft | 503 kts | 45° |
| 2026-05-06 12:49 | 32.16780 | -86.24953 | 39053 ft | 503 kts | 45° |
| 2026-05-06 12:50 | 32.20984 | -86.18335 | 39057 ft | 504 kts | 45° |
| 2026-05-06 12:50 | 32.25180 | -86.11717 | 39050 ft | 503 kts | 45° |
| 2026-05-06 12:51 | 32.29380 | -86.05081 | 39038 ft | 503 kts | 45° |
| 2026-05-06 12:51 | 32.33569 | -85.98450 | 39045 ft | 504 kts | 45° |
| 2026-05-06 12:52 | 32.37761 | -85.91803 | 39045 ft | 504 kts | 45° |
| 2026-05-06 12:52 | 32.41956 | -85.85140 | 39056 ft | 504 kts | 45° |
| 2026-05-06 12:53 | 32.46116 | -85.78522 | 39054 ft | 503 kts | 45° |
| 2026-05-06 12:53 | 32.50291 | -85.71866 | 39062 ft | 503 kts | 45° |
| 2026-05-06 12:54 | 32.54467 | -85.65198 | 39068 ft | 504 kts | 45° |
| 2026-05-06 12:54 | 32.58640 | -85.58523 | 39071 ft | 504 kts | 45° |
| 2026-05-06 12:55 | 32.62810 | -85.51840 | 39081 ft | 504 kts | 45° |
| 2026-05-06 12:55 | 32.66982 | -85.45143 | 39082 ft | 504 kts | 45° |
| 2026-05-06 12:56 | 32.71120 | -85.38489 | 39082 ft | 503 kts | 45° |
| 2026-05-06 12:56 | 32.75275 | -85.31796 | 39085 ft | 504 kts | 45° |
| 2026-05-06 12:57 | 32.79430 | -85.25089 | 39071 ft | 504 kts | 45° |
| 2026-05-06 12:57 | 32.83579 | -85.18380 | 39075 ft | 504 kts | 45° |
| 2026-05-06 12:58 | 32.87725 | -85.11666 | 39078 ft | 504 kts | 45° |
| 2026-05-06 12:58 | 32.91867 | -85.04945 | 39072 ft | 504 kts | 45° |
| 2026-05-06 12:59 | 32.96017 | -84.98200 | 39073 ft | 505 kts | 45° |
| 2026-05-06 12:59 | 33.00158 | -84.91454 | 39071 ft | 504 kts | 45° |
| 2026-05-06 13:00 | 33.04298 | -84.84700 | 39073 ft | 504 kts | 45° |
| 2026-05-06 13:00 | 33.08434 | -84.77939 | 39076 ft | 505 kts | 45° |
| 2026-05-06 13:01 | 33.12568 | -84.71169 | 39075 ft | 505 kts | 45° |
| 2026-05-06 13:01 | 33.16695 | -84.64399 | 39069 ft | 504 kts | 45° |
| 2026-05-06 13:02 | 33.20828 | -84.57607 | 39065 ft | 505 kts | 45° |
| 2026-05-06 13:02 | 33.24947 | -84.50825 | 39062 ft | 505 kts | 45° |
| 2026-05-06 13:03 | 33.29042 | -84.44070 | 39067 ft | 505 kts | 45° |
| 2026-05-06 13:03 | 33.33166 | -84.37257 | 39082 ft | 505 kts | 45° |
| 2026-05-06 13:04 | 33.37285 | -84.30435 | 39088 ft | 506 kts | 45° |
| 2026-05-06 13:04 | 33.41408 | -84.23597 | 39101 ft | 507 kts | 45° |
| 2026-05-06 13:05 | 33.45532 | -84.16744 | 39091 ft | 507 kts | 45° |
| 2026-05-06 13:05 | 33.49622 | -84.09935 | 39079 ft | 507 kts | 45° |
| 2026-05-06 13:06 | 33.53766 | -84.03027 | 39064 ft | 507 kts | 45° |
| 2026-05-06 13:06 | 33.57849 | -83.96207 | 39057 ft | 507 kts | 45° |
| 2026-05-06 13:07 | 33.61962 | -83.89324 | 39048 ft | 507 kts | 45° |
| 2026-05-06 13:07 | 33.66065 | -83.82445 | 39045 ft | 507 kts | 46° |
| 2026-05-06 13:08 | 33.70170 | -83.75552 | 39045 ft | 507 kts | 46° |
| 2026-05-06 13:08 | 33.74062 | -83.68434 | 39064 ft | 512 kts | 50° |
| 2026-05-06 13:09 | 33.77864 | -83.61198 | 39055 ft | 511 kts | 49° |
| 2026-05-06 13:09 | 33.81675 | -83.53986 | 39053 ft | 511 kts | 49° |
| 2026-05-06 13:10 | 33.85480 | -83.46774 | 39055 ft | 511 kts | 49° |
| 2026-05-06 13:10 | 33.89280 | -83.39558 | 39054 ft | 509 kts | 49° |
| 2026-05-06 13:11 | 33.93070 | -83.32346 | 39054 ft | 509 kts | 49° |
| 2026-05-06 13:11 | 33.96830 | -83.25176 | 39053 ft | 509 kts | 49° |
| 2026-05-06 13:12 | 34.00600 | -83.17973 | 39054 ft | 508 kts | 49° |
| 2026-05-06 13:12 | 34.04373 | -83.10750 | 39057 ft | 511 kts | 48° |
| 2026-05-06 13:13 | 34.07517 | -83.04719 | 39061 ft | 510 kts | 48° |
| 2026-05-06 13:13 | 34.11292 | -82.97468 | 39065 ft | 510 kts | 48° |
| 2026-05-06 13:14 | 34.15060 | -82.90213 | 39058 ft | 509 kts | 48° |
| 2026-05-06 13:14 | 34.18821 | -82.82957 | 39063 ft | 508 kts | 48° |
| 2026-05-06 13:15 | 34.22565 | -82.75720 | 39065 ft | 508 kts | 47° |
| 2026-05-06 13:15 | 34.26300 | -82.68485 | 39063 ft | 507 kts | 47° |
| 2026-05-06 13:16 | 34.30010 | -82.61282 | 39066 ft | 506 kts | 47° |
| 2026-05-06 13:16 | 34.33728 | -82.54051 | 39058 ft | 505 kts | 47° |
| 2026-05-06 13:17 | 34.37434 | -82.46829 | 39060 ft | 506 kts | 47° |
| 2026-05-06 13:17 | 34.41141 | -82.39591 | 39060 ft | 505 kts | 47° |
| 2026-05-06 13:18 | 34.44831 | -82.32372 | 39064 ft | 504 kts | 47° |
| 2026-05-06 13:18 | 34.48523 | -82.25135 | 39062 ft | 505 kts | 47° |
| 2026-05-06 13:19 | 34.52217 | -82.17898 | 39055 ft | 504 kts | 47° |
| 2026-05-06 13:19 | 34.55973 | -82.10735 | 39057 ft | 504 kts | 47° |
| 2026-05-06 13:20 | 34.59699 | -82.03602 | 39055 ft | 504 kts | 46° |
| 2026-05-06 13:20 | 34.63445 | -81.96416 | 39055 ft | 504 kts | 46° |
| 2026-05-06 13:21 | 34.67179 | -81.89238 | 39055 ft | 501 kts | 46° |
| 2026-05-06 13:21 | 34.70894 | -81.82080 | 39066 ft | 501 kts | 46° |
| 2026-05-06 13:22 | 34.74611 | -81.74907 | 39073 ft | 502 kts | 46° |
| 2026-05-06 13:22 | 34.78344 | -81.67686 | 39073 ft | 503 kts | 46° |
| 2026-05-06 13:23 | 34.82066 | -81.60473 | 39071 ft | 504 kts | 46° |
| 2026-05-06 13:23 | 34.85788 | -81.53244 | 39066 ft | 504 kts | 46° |
| 2026-05-06 13:24 | 34.89507 | -81.46007 | 39061 ft | 504 kts | 46° |
| 2026-05-06 13:24 | 34.93225 | -81.38755 | 39055 ft | 504 kts | 46° |
| 2026-05-06 13:25 | 34.96908 | -81.31557 | 39044 ft | 502 kts | 46° |
| 2026-05-06 13:25 | 35.00610 | -81.24308 | 39051 ft | 503 kts | 46° |
| 2026-05-06 13:26 | 35.04304 | -81.17059 | 39036 ft | 503 kts | 46° |
| 2026-05-06 13:26 | 35.07998 | -81.09797 | 39030 ft | 503 kts | 46° |
| 2026-05-06 13:27 | 35.11683 | -81.02535 | 39035 ft | 503 kts | 46° |
| 2026-05-06 13:27 | 35.15368 | -80.95258 | 39031 ft | 503 kts | 46° |
| 2026-05-06 13:28 | 35.19045 | -80.87985 | 39035 ft | 504 kts | 46° |
| 2026-05-06 13:28 | 35.22727 | -80.80683 | 39043 ft | 503 kts | 46° |
| 2026-05-06 13:29 | 35.26393 | -80.73399 | 39044 ft | 502 kts | 46° |
| 2026-05-06 13:29 | 35.30057 | -80.66104 | 39045 ft | 503 kts | 46° |
| 2026-05-06 13:30 | 35.33684 | -80.58869 | 39047 ft | 502 kts | 46° |
| 2026-05-06 13:30 | 35.37335 | -80.51568 | 39047 ft | 503 kts | 46° |
| 2026-05-06 13:31 | 35.40990 | -80.44244 | 39050 ft | 504 kts | 46° |
| 2026-05-06 13:31 | 35.44645 | -80.36906 | 39047 ft | 504 kts | 46° |
| 2026-05-06 13:32 | 35.48292 | -80.29571 | 39044 ft | 502 kts | 46° |
| 2026-05-06 13:32 | 35.52088 | -80.22494 | 39072 ft | 493 kts | 41° |
| 2026-05-06 13:33 | 35.56068 | -80.15570 | 39051 ft | 495 kts | 41° |
| 2026-05-06 13:33 | 35.60010 | -80.08632 | 39054 ft | 496 kts | 42° |
| 2026-05-06 13:34 | 35.63929 | -80.01715 | 39046 ft | 496 kts | 41° |
| 2026-05-06 13:34 | 35.67864 | -79.94759 | 39038 ft | 495 kts | 42° |
| 2026-05-06 13:35 | 35.71800 | -79.87788 | 39049 ft | 496 kts | 42° |
| 2026-05-06 13:35 | 35.75740 | -79.80817 | 39047 ft | 495 kts | 41° |
| 2026-05-06 13:36 | 35.79694 | -79.73830 | 39039 ft | 496 kts | 41° |
| 2026-05-06 13:36 | 35.83624 | -79.66869 | 39033 ft | 494 kts | 41° |
| 2026-05-06 13:37 | 35.87544 | -79.59911 | 39036 ft | 494 kts | 42° |
| 2026-05-06 13:37 | 35.91430 | -79.53002 | 39027 ft | 493 kts | 42° |
| 2026-05-06 13:38 | 35.95338 | -79.46035 | 39031 ft | 494 kts | 42° |
| 2026-05-06 13:38 | 35.99240 | -79.39071 | 39023 ft | 492 kts | 42° |
| 2026-05-06 13:39 | 36.03133 | -79.32106 | 39018 ft | 493 kts | 42° |
| 2026-05-06 13:39 | 36.07046 | -79.25092 | 39012 ft | 496 kts | 42° |
| 2026-05-06 13:40 | 36.10943 | -79.18090 | 39024 ft | 493 kts | 42° |
| 2026-05-06 13:40 | 36.14835 | -79.11087 | 39035 ft | 494 kts | 42° |
| 2026-05-06 13:41 | 36.18700 | -79.04122 | 39037 ft | 494 kts | 42° |
| 2026-05-06 13:41 | 36.22580 | -78.97115 | 39048 ft | 492 kts | 42° |
| 2026-05-06 13:42 | 36.26443 | -78.90127 | 39047 ft | 491 kts | 42° |
| 2026-05-06 13:42 | 36.30299 | -78.83136 | 39048 ft | 491 kts | 42° |
| 2026-05-06 13:43 | 36.34141 | -78.76154 | 39032 ft | 489 kts | 43° |
| 2026-05-06 13:43 | 36.37981 | -78.69166 | 39036 ft | 490 kts | 43° |
| 2026-05-06 13:44 | 36.41816 | -78.62171 | 39037 ft | 488 kts | 43° |
| 2026-05-06 13:44 | 36.45882 | -78.55603 | 39010 ft | 459 kts | 28° |
| 2026-05-06 13:45 | 36.50546 | -78.50118 | 39016 ft | 462 kts | 29° |
| 2026-05-06 13:45 | 36.57536 | -78.41875 | 39022 ft | 463 kts | 29° |
| 2026-05-06 13:46 | 36.62214 | -78.36352 | 39027 ft | 463 kts | 29° |
| 2026-05-06 13:46 | 36.66879 | -78.30835 | 39030 ft | 463 kts | 29° |
| 2026-05-06 13:47 | 36.71530 | -78.25324 | 39025 ft | 465 kts | 29° |
| 2026-05-06 13:47 | 36.76212 | -78.19768 | 39024 ft | 465 kts | 29° |
| 2026-05-06 13:48 | 36.80902 | -78.14194 | 39033 ft | 467 kts | 29° |
| 2026-05-06 13:48 | 36.85606 | -78.08590 | 39027 ft | 467 kts | 29° |
| 2026-05-06 13:49 | 36.90313 | -78.02977 | 39010 ft | 469 kts | 29° |
| 2026-05-06 13:49 | 36.95005 | -77.97367 | 39009 ft | 470 kts | 30° |
| 2026-05-06 13:50 | 36.99713 | -77.91730 | 38986 ft | 467 kts | 30° |
| 2026-05-06 13:50 | 37.04409 | -77.86097 | 38984 ft | 468 kts | 30° |
| 2026-05-06 13:51 | 37.09115 | -77.80442 | 38972 ft | 469 kts | 30° |
| 2026-05-06 13:51 | 37.13830 | -77.74767 | 38223 ft | 470 kts | 30° |
| 2026-05-06 13:52 | 37.16221 | -77.71893 | 37087 ft | 483 kts | 32° |
| 2026-05-06 13:52 | 37.18641 | -77.68965 | 36385 ft | 479 kts | 32° |
| 2026-05-06 13:52 | 37.21002 | -77.66110 | 35800 ft | 477 kts | 33° |
| 2026-05-06 13:52 | 37.23421 | -77.63187 | 35045 ft | 478 kts | 33° |
| 2026-05-06 13:53 | 37.25792 | -77.60319 | 34326 ft | 480 kts | 34° |
| 2026-05-06 13:53 | 37.28187 | -77.57416 | 33659 ft | 479 kts | 35° |
| 2026-05-06 13:53 | 37.30587 | -77.54508 | 32932 ft | 479 kts | 35° |
| 2026-05-06 13:53 | 37.32991 | -77.51590 | 32148 ft | 481 kts | 36° |
| 2026-05-06 13:54 | 37.35400 | -77.48665 | 31363 ft | 483 kts | 36° |
| 2026-05-06 13:54 | 37.37824 | -77.45718 | 30573 ft | 485 kts | 37° |
| 2026-05-06 13:54 | 37.40254 | -77.42763 | 29791 ft | 486 kts | 37° |
| 2026-05-06 13:54 | 37.42688 | -77.39800 | 28993 ft | 487 kts | 37° |
| 2026-05-06 13:55 | 37.45121 | -77.36834 | 28177 ft | 488 kts | 38° |
| 2026-05-06 13:55 | 37.47623 | -77.33949 | 27360 ft | 483 kts | 30° |
| 2026-05-06 13:55 | 37.50493 | -77.31935 | 26639 ft | 464 kts | 13° |
| 2026-05-06 13:55 | 37.53564 | -77.30962 | 26148 ft | 437 kts | 4° |
| 2026-05-06 13:56 | 37.56467 | -77.30212 | 25632 ft | 427 kts | 4° |
| 2026-05-06 13:56 | 37.59376 | -77.29483 | 25071 ft | 425 kts | 4° |
| 2026-05-06 13:56 | 37.62254 | -77.28778 | 24524 ft | 417 kts | 4° |
| 2026-05-06 13:56 | 37.65097 | -77.28093 | 24004 ft | 415 kts | 4° |
| 2026-05-06 13:57 | 37.67929 | -77.27412 | 23483 ft | 413 kts | 4° |
| 2026-05-06 13:57 | 37.69795 | -77.26963 | 23169 ft | 411 kts | 4° |
| 2026-05-06 13:57 | 37.72570 | -77.26255 | 23076 ft | 404 kts | 5° |
| 2026-05-06 13:57 | 37.75333 | -77.25541 | 23077 ft | 406 kts | 5° |
| 2026-05-06 13:58 | 37.78105 | -77.24825 | 23085 ft | 407 kts | 5° |
| 2026-05-06 13:58 | 37.80876 | -77.24111 | 23085 ft | 407 kts | 5° |
| 2026-05-06 13:58 | 37.83652 | -77.23394 | 23087 ft | 407 kts | 5° |
| 2026-05-06 13:58 | 37.86431 | -77.22676 | 23086 ft | 406 kts | 5° |
| 2026-05-06 13:59 | 37.89203 | -77.21960 | 23078 ft | 407 kts | 5° |
| 2026-05-06 13:59 | 37.91979 | -77.21238 | 22772 ft | 406 kts | 5° |
| 2026-05-06 13:59 | 37.94738 | -77.20521 | 22449 ft | 403 kts | 5° |
| 2026-05-06 13:59 | 37.97484 | -77.19807 | 22120 ft | 402 kts | 5° |
| 2026-05-06 14:00 | 38.00220 | -77.19093 | 21784 ft | 401 kts | 5° |
| 2026-05-06 14:00 | 38.02952 | -77.18382 | 21442 ft | 399 kts | 5° |
| 2026-05-06 14:00 | 38.05678 | -77.17671 | 21110 ft | 400 kts | 5° |
| 2026-05-06 14:00 | 38.08406 | -77.16958 | 20698 ft | 399 kts | 5° |
| 2026-05-06 14:01 | 38.11121 | -77.16249 | 20341 ft | 397 kts | 5° |
| 2026-05-06 14:01 | 38.13789 | -77.15551 | 19986 ft | 396 kts | 6° |
| 2026-05-06 14:01 | 38.16488 | -77.14845 | 19621 ft | 395 kts | 6° |
| 2026-05-06 14:01 | 38.19173 | -77.14142 | 19249 ft | 394 kts | 6° |
| 2026-05-06 14:02 | 38.21849 | -77.13440 | 18878 ft | 392 kts | 6° |
| 2026-05-06 14:02 | 38.24516 | -77.12741 | 18481 ft | 390 kts | 6° |
| 2026-05-06 14:02 | 38.27160 | -77.12047 | 18135 ft | 388 kts | 6° |
| 2026-05-06 14:02 | 38.29804 | -77.11353 | 17770 ft | 387 kts | 6° |
| 2026-05-06 14:03 | 38.32427 | -77.10663 | 17436 ft | 383 kts | 6° |
| 2026-05-06 14:03 | 38.35025 | -77.09964 | 17003 ft | 382 kts | 9° |
| 2026-05-06 14:03 | 38.37512 | -77.08611 | 16374 ft | 396 kts | 29° |
| 2026-05-06 14:03 | 38.39806 | -77.06646 | 15870 ft | 397 kts | 31° |
| 2026-05-06 14:04 | 38.42070 | -77.04669 | 15329 ft | 391 kts | 32° |
| 2026-05-06 14:04 | 38.44320 | -77.02684 | 14743 ft | 394 kts | 32° |
| 2026-05-06 14:04 | 38.46556 | -77.00699 | 14165 ft | 388 kts | 33° |
| 2026-05-06 14:04 | 38.48764 | -76.98734 | 13614 ft | 387 kts | 33° |
| 2026-05-06 14:05 | 38.50981 | -76.96757 | 13016 ft | 390 kts | 33° |
| 2026-05-06 14:05 | 38.53217 | -76.94762 | 12433 ft | 393 kts | 33° |
| 2026-05-06 14:05 | 38.55415 | -76.92692 | 11886 ft | 394 kts | 41° |
| 2026-05-06 14:05 | 38.57368 | -76.90289 | 11475 ft | 382 kts | 44° |
| 2026-05-06 14:06 | 38.59220 | -76.88037 | 11137 ft | 366 kts | 43° |
| 2026-05-06 14:06 | 38.61039 | -76.85849 | 10792 ft | 352 kts | 43° |
| 2026-05-06 14:06 | 38.62796 | -76.83752 | 10451 ft | 339 kts | 42° |
| 2026-05-06 14:06 | 38.64515 | -76.81710 | 10125 ft | 328 kts | 42° |
| 2026-05-06 14:07 | 38.66146 | -76.79776 | 9815 ft | 321 kts | 42° |
| 2026-05-06 14:07 | 38.67777 | -76.77844 | 9492 ft | 319 kts | 42° |
| 2026-05-06 14:07 | 38.69401 | -76.75917 | 9162 ft | 318 kts | 42° |
| 2026-05-06 14:07 | 38.70869 | -76.73830 | 8848 ft | 315 kts | 59° |
| 2026-05-06 14:08 | 38.71932 | -76.71399 | 8550 ft | 312 kts | 62° |
| 2026-05-06 14:08 | 38.72985 | -76.68978 | 8251 ft | 310 kts | 62° |
| 2026-05-06 14:08 | 38.74030 | -76.66578 | 7963 ft | 308 kts | 62° |
| 2026-05-06 14:08 | 38.75067 | -76.64191 | 7668 ft | 305 kts | 62° |
| 2026-05-06 14:09 | 38.76099 | -76.61818 | 7379 ft | 303 kts | 62° |
| 2026-05-06 14:09 | 38.77173 | -76.59513 | 7083 ft | 301 kts | 51° |
| 2026-05-06 14:09 | 38.78769 | -76.57834 | 6771 ft | 295 kts | 22° |
| 2026-05-06 14:09 | 38.80700 | -76.57070 | 6540 ft | 291 kts | 8° |
| 2026-05-06 14:10 | 38.82690 | -76.56497 | 6294 ft | 294 kts | 8° |
| 2026-05-06 14:10 | 38.84698 | -76.55949 | 6021 ft | 293 kts | 5° |
| 2026-05-06 14:10 | 38.86687 | -76.55533 | 5886 ft | 287 kts | 5° |
| 2026-05-06 14:10 | 38.88679 | -76.55125 | 5784 ft | 289 kts | 4° |
| 2026-05-06 14:11 | 38.90635 | -76.54717 | 5665 ft | 281 kts | 4° |
| 2026-05-06 14:11 | 38.92527 | -76.54323 | 5543 ft | 269 kts | 4° |
| 2026-05-06 14:11 | 38.94327 | -76.53948 | 5442 ft | 256 kts | 4° |
| 2026-05-06 14:11 | 38.96077 | -76.53583 | 5346 ft | 255 kts | 4° |
| 2026-05-06 14:12 | 38.97822 | -76.53220 | 5233 ft | 254 kts | 4° |
| 2026-05-06 14:12 | 38.99564 | -76.52857 | 5127 ft | 253 kts | 4° |
| 2026-05-06 14:12 | 39.01313 | -76.52637 | 4870 ft | 254 kts | 358° |
| 2026-05-06 14:12 | 39.03099 | -76.52485 | 4499 ft | 260 kts | 359° |
| 2026-05-06 14:13 | 39.04923 | -76.52316 | 4151 ft | 264 kts | 359° |
| 2026-05-06 14:13 | 39.06766 | -76.52140 | 3786 ft | 268 kts | 360° |
| 2026-05-06 14:13 | 39.08638 | -76.51963 | 3426 ft | 271 kts | 0° |
| 2026-05-06 14:13 | 39.10526 | -76.51774 | 3114 ft | 270 kts | 0° |
| 2026-05-06 14:14 | 39.12370 | -76.51785 | 2776 ft | 261 kts | 347° |
| 2026-05-06 14:14 | 39.14060 | -76.52423 | 2344 ft | 252 kts | 327° |
| 2026-05-06 14:14 | 39.15418 | -76.53741 | 2016 ft | 235 kts | 308° |
| 2026-05-06 14:14 | 39.16311 | -76.55377 | 1690 ft | 215 kts | 293° |
| 2026-05-06 14:15 | 39.16794 | -76.57156 | 1487 ft | 207 kts | 276° |
| 2026-05-06 14:15 | 39.16909 | -76.59004 | 1521 ft | 209 kts | 270° |
| 2026-05-06 14:15 | 39.16966 | -76.60867 | 1256 ft | 208 kts | 270° |
| 2026-05-06 14:15 | 39.17098 | -76.62712 | 904 ft | 202 kts | 275° |
| 2026-05-06 14:16 | 39.17220 | -76.64424 | 440 ft | 183 kts | 273° |
| 2026-05-06 14:16 | 39.17303 | -76.65956 | 165 ft | 158 kts | 272° |
| 2026-05-06 14:16 | 39.17370 | -76.67218 | 153 ft | 119 kts | 275° |
| 2026-05-06 14:16 | 39.17415 | -76.67916 | 141 ft | 50 kts | 274° |
| 2026-05-06 14:17 | 39.17446 | -76.68122 | 142 ft | 19 kts | 304° |
| 2026-05-06 14:17 | 39.17543 | -76.68168 | 143 ft | 0 kts | 6° |
| 2026-05-06 14:19 | 39.17556 | -76.68166 | 143 ft | 4 kts | 6° |
| 2026-05-06 14:19 | 39.17590 | -76.68157 | 143 ft | 7 kts | 16° |
| 2026-05-06 14:19 | 39.17640 | -76.68129 | 143 ft | 9 kts | 30° |
| 2026-05-06 14:19 | 39.17684 | -76.68070 | 145 ft | 9 kts | 50° |
| 2026-05-06 14:20 | 39.17712 | -76.67995 | 147 ft | 10 kts | 77° |
| 2026-05-06 14:20 | 39.17728 | -76.67901 | 148 ft | 12 kts | 77° |
| 2026-05-06 14:20 | 39.17750 | -76.67774 | 148 ft | 8 kts | 78° |
| 2026-05-06 14:20 | 39.17760 | -76.67715 | 148 ft | 8 kts | 77° |
| 2026-05-06 14:21 | 39.17775 | -76.67633 | 149 ft | 10 kts | 78° |
| 2026-05-06 14:21 | 39.17797 | -76.67531 | 149 ft | 13 kts | 62° |
| 2026-05-06 14:21 | 39.17847 | -76.67432 | 147 ft | 12 kts | 52° |
| 2026-05-06 14:21 | 39.17896 | -76.67367 | 146 ft | 8 kts | 27° |
| 2026-05-06 14:22 | 39.17933 | -76.67365 | 146 ft | 2 kts | 4° |
| 2026-05-06 14:22 | 39.17944 | -76.67345 | 146 ft | 6 kts | 57° |
| 2026-05-06 14:22 | 39.17967 | -76.67302 | 146 ft | 4 kts | 53° |
| 2026-05-06 14:22 | 39.17972 | -76.67292 | 146 ft | 0 kts | 54° |